Data for 08/28/2015

Time Sea-Level Adjusted Pressure Absolute Pressure Temperature Relative Humidity Dew Point   
(mb) (inHg) (mb) (inHg) (C) (F) (%) (C) (F)
00:05 1022 30.18 852 25.16 16.9 62.5 51 6.8 44.3
00:10 1023 30.21 852 25.16 17 62.5 49 6.3 43.4
00:15 1023 30.21 852 25.16 17.1 62.8 49 6.3 43.3
00:20 1023 30.21 852 25.16 17.6 63.7 44 5.2 41.4
00:25 1023 30.21 852 25.16 18.3 65 43 5.7 42.2
00:30 1023 30.21 852 25.16 18.6 65.5 40 5 41
00:35 1023 30.21 852 25.16 18.5 65.3 51 8.2 46.8
00:40 1023 30.21 852 25.16 17.4 63.4 51 7.3 45.2
00:45 1023 30.21 852 25.16 17 62.6 52 7.1 44.7
00:50 1023 30.21 852 25.16 16.5 61.8 53 7 44.6
00:55 1023 30.21 852 25.16 16.4 61.6 52 6.6 43.9
01:00 1023 30.21 852 25.16 16.3 61.4 54 7.1 44.8
01:05 1023 30.21 852 25.16 15.9 60.7 55 7.1 44.8
01:10 1023 30.21 852 25.16 15.8 60.4 56 7.1 44.8
01:15 1023 30.21 852 25.16 15.7 60.2 57 7.2 44.9
01:20 1023 30.21 852 25.16 15.7 60.2 59 7.6 45.7
01:25 1023 30.21 852 25.16 15.6 60.2 54 6.4 43.6
01:30 1023 30.21 852 25.16 15.9 60.5 55 6.8 44.2
01:35 1023 30.21 852 25.16 15.6 60.2 55 6.8 44.2
01:40 1023 30.21 852 25.16 15.3 59.5 57 6.9 44.4
01:45 1023 30.21 852 25.16 15.1 59.2 60 7.4 45.3
01:50 1023 30.21 852 25.16 15 59 58 6.8 44.2
01:55 1023 30.21 852 25.16 14.8 58.7 57 6.6 43.8
02:00 1023 30.21 852 25.16 14.6 58.2 59 6.7 44.1
02:05 1023 30.21 852 25.16 14.1 57.5 62 7.2 44.9
02:10 1023 30.21 852 25.16 13.6 56.5 63 6.9 44.4
02:15 1023 30.21 852 25.16 13.5 56.4 61 6.2 43.2
02:20 1023 30.21 852 25.16 13.7 56.7 59 6 42.8
02:25 1023 30.21 852 25.16 14.1 57.3 56 5.5 41.8
02:30 1023 30.21 852 25.16 14.6 58.3 55 5.7 42.2
02:35 1023 30.21 852 25.16 14.7 58.5 56 6.1 42.9
02:40 1023 30.21 852 25.16 14.5 58.1 56 6 42.7
02:45 1023 30.21 852 25.16 14.4 57.9 57 6.1 42.9
02:50 1023 30.21 852 25.16 14.2 57.5 57 5.9 42.6
02:55 1023 30.21 852 25.16 14.1 57.5 56 5.6 42.1
03:00 1023 30.21 852 25.16 14.4 57.9 56 5.7 42.2
03:05 1023 30.21 852 25.16 14.3 57.8 56 5.8 42.5
03:10 1023 30.21 852 25.16 14.3 57.7 55 5.4 41.7
03:15 1023 30.21 852 25.16 14.4 58 54 5.3 41.5
03:20 1023 30.21 852 25.16 14.5 58 54 5.5 41.8
03:25 1023 30.21 852 25.16 14.4 57.9 53 5 41
03:30 1023 30.21 852 25.16 14.5 58.1 52 4.8 40.7
03:35 1023 30.21 852 25.16 14.3 57.7 55 5.5 41.8
03:40 1023 30.21 852 25.16 13.9 57 55 5.1 41.1
03:45 1023 30.21 852 25.16 13.9 57.1 54 4.8 40.7
03:50 1023 30.21 852 25.16 14.2 57.5 54 5 41
03:55 1023 30.21 852 25.16 14.1 57.3 56 5.5 41.9
04:00 1023 30.21 852 25.16 13.4 56.1 57 5 41
04:05 1023 30.21 852 25.16 13.5 56.3 57 5.2 41.3
04:10 1023 30.21 852 25.16 13.2 55.7 59 5.3 41.6
04:15 1023 30.21 852 25.16 13 55.3 59 5.3 41.5
04:20 1023 30.21 852 25.16 12.8 55 59 5 41
04:25 1023 30.21 852 25.16 13.1 55.5 58 5.1 41.1
04:30 1023 30.21 852 25.16 13.1 55.5 57 4.9 40.8
04:35 1023 30.21 852 25.16 12.9 55.2 59 5.2 41.3
04:40 1023 30.21 852 25.16 12.6 54.7 59 5 41
04:45 1023 30.21 852 25.16 12.5 54.5 60 4.9 40.9
04:50 1023 30.21 852 25.16 12.7 54.8 58 4.7 40.5
04:55 1023 30.21 853 25.19 13.1 55.6 56 4.7 40.4
05:00 1023 30.21 852 25.16 13.2 55.7 57 4.8 40.7
05:05 1023 30.21 852 25.16 13.3 55.9 56 4.7 40.4
05:10 1023 30.21 852 25.16 13.4 56 56 4.8 40.7
05:15 1023 30.21 852 25.16 13.3 55.9 56 4.8 40.6
05:20 1023 30.21 853 25.19 13.3 55.9 56 4.8 40.6
05:25 1023 30.21 853 25.19 13.2 55.7 56 4.7 40.5
05:30 1023 30.21 853 25.19 13.3 55.9 56 4.7 40.5
05:35 1023 30.21 853 25.19 13.3 55.9 55 4.6 40.2
05:40 1023 30.21 853 25.19 13.7 56.6 54 4.7 40.4
05:45 1023 30.21 853 25.19 13.8 56.8 52 4.3 39.7
05:50 1023 30.21 853 25.19 13.9 57.1 53 4.6 40.3
05:55 1023 30.21 853 25.19 13.8 56.9 53 4.5 40.2
06:00 1023 30.21 853 25.19 13.7 56.7 53 4.5 40.1
06:05 1023 30.21 853 25.19 13.6 56.5 55 4.9 40.8
06:10 1023 30.21 853 25.19 13.2 55.7 57 5 40.9
06:15 1023 30.21 853 25.19 13 55.5 58 5 40.9
06:20 1023 30.21 853 25.19 12.9 55.2 58 4.8 40.7
06:25 1023 30.21 853 25.19 13 55.3 57 4.6 40.2
06:30 1024 30.24 853 25.19 13.3 55.9 56 4.8 40.6
06:35 1024 30.24 853 25.19 13.3 55.9 56 4.9 40.8
06:40 1024 30.24 853 25.19 13.3 55.9 57 4.9 40.9
06:45 1024 30.24 853 25.19 13.4 56.1 57 5 41.1
06:50 1023 30.21 853 25.19 13.4 56.1 57 5.2 41.3
06:55 1023 30.21 853 25.19 13.4 56.1 57 5.2 41.3
07:00 1024 30.24 853 25.19 13.6 56.4 56 5 41
07:05 1023 30.21 853 25.19 14 57.3 55 5.1 41.2
07:10 1023 30.21 853 25.19 14.3 57.7 55 5.5 41.9
07:15 1023 30.21 853 25.19 14.4 57.9 54 5.4 41.7
07:20 1023 30.21 853 25.19 14.5 58.1 54 5.4 41.7
07:25 1023 30.21 853 25.19 14.6 58.2 54 5.5 42
07:30 1023 30.21 852 25.16 14.6 58.2 56 5.9 42.5
07:35 1023 30.21 852 25.16 14.7 58.5 54 5.7 42.3
07:40 1023 30.21 852 25.16 14.9 58.8 54 5.9 42.6
07:45 1023 30.21 853 25.19 15 59.1 55 6.2 43.2
07:50 1023 30.21 853 25.19 15.4 59.7 52 5.6 42.1
07:55 1023 30.21 853 25.19 15.8 60.4 52 5.9 42.7
08:00 1023 30.21 853 25.19 16.1 60.9 50 5.6 42.1
08:05 1023 30.21 853 25.19 16.4 61.4 48 5.4 41.8
08:10 1023 30.21 853 25.19 16.7 62.1 50 6.2 43.2
08:15 1023 30.21 852 25.16 17 62.6 48 5.9 42.7
08:20 1023 30.21 852 25.16 17.2 63 47 5.9 42.6
08:25 1023 30.21 852 25.16 17.4 63.4 47 6.1 43
08:30 1023 30.21 852 25.16 17.7 63.9 46 6.1 42.9
08:35 1023 30.21 852 25.16 18.1 64.5 47 6.8 44.3
08:40 1023 30.21 852 25.16 18.2 64.7 46 6.4 43.6
08:45 1023 30.21 852 25.16 18.4 65 47 6.8 44.3
08:50 1023 30.21 853 25.19 18.7 65.7 43 6 42.8
08:55 1023 30.21 852 25.16 19.1 66.3 41 5.7 42.3
09:00 1023 30.21 853 25.19 19.5 67.2 40 5.7 42.3
09:05 1023 30.21 853 25.19 19.9 67.9 40 6.1 43.1
09:10 1023 30.21 853 25.19 20.4 68.7 38 5.9 42.6
09:15 1023 30.21 853 25.19 20.7 69.2 39 6.4 43.5
09:20 1023 30.21 852 25.16 20.8 69.4 38 6 42.8
09:25 1023 30.21 852 25.16 21 69.9 38 6.5 43.7
09:30 1023 30.21 853 25.19 21.4 70.5 42 8.1 46.7
09:35 1023 30.21 853 25.19 21.4 70.6 41 7.7 45.9
09:40 1023 30.21 852 25.16 21.6 70.9 39 7.4 45.4
09:45 1023 30.21 852 25.16 22.1 71.7 39 7.7 45.9
09:50 1023 30.21 852 25.16 21.4 70.5 42 8.1 46.6
09:55 1023 30.21 852 25.16 21 69.7 41 7.3 45.2
10:00 1023 30.21 852 25.16 21.1 70 42 7.8 46
10:05 1023 30.21 852 25.16 20.9 69.6 42 7.7 45.9
10:10 1023 30.21 852 25.16 20.8 69.5 43 7.8 46
10:15 1023 30.21 853 25.19 21.1 70 43 8.1 46.7
10:20 1023 30.21 852 25.16 20.9 69.6 42 7.6 45.6
10:25 1023 30.21 852 25.16 21 69.9 42 7.7 45.9
10:30 1023 30.21 852 25.16 21.6 70.8 40 7.4 45.4
10:35 1023 30.21 852 25.16 21.9 71.4 37 6.8 44.2
10:40 1023 30.21 852 25.16 21.9 71.4 36 6.5 43.7
10:45 1023 30.21 852 25.16 22.1 71.8 36 6.4 43.5
10:50 1023 30.21 852 25.16 23 73.3 35 6.7 44.1
10:55 1023 30.21 852 25.16 23.2 73.7 35 7.1 44.8
11:00 1023 30.21 852 25.16 23.7 74.7 33 6.7 44.1
11:05 1023 30.21 852 25.16 24 75.2 33 6.8 44.2
11:10 1023 30.21 852 25.16 23.3 74 34 6.9 44.3
11:15 1023 30.21 852 25.16 23.4 74.2 33 6.6 43.9
11:20 1023 30.21 852 25.16 23.6 74.6 33 6.8 44.3
11:25 1023 30.21 852 25.16 23.6 74.4 32 6.3 43.4
11:30 1023 30.21 852 25.16 23.8 74.8 32 6.6 43.8
11:35 1022 30.18 852 25.16 24 75.2 31 6.2 43.2
11:40 1022 30.18 852 25.16 24.6 76.3 32 6.9 44.5
11:45 1022 30.18 852 25.16 25.5 77.9 29 6.3 43.3
11:50 1022 30.18 852 25.16 25.6 78.1 29 6.6 43.8
11:55 1022 30.18 851 25.13 24.9 76.8 31 7 44.6
12:00 1022 30.18 851 25.13 24.8 76.7 32 7 44.7
12:05 1022 30.18 851 25.13 25.9 78.7 29 6.8 44.3
12:10 1022 30.18 851 25.13 25.4 77.7 27 5.5 41.9
12:15 1022 30.18 851 25.13 25.2 77.4 28 5.8 42.4
12:20 1022 30.18 851 25.13 25.6 78 28 5.8 42.4
12:25 1022 30.18 851 25.13 26.2 79.1 26 5.5 41.9
12:30 1022 30.18 851 25.13 26.9 80.4 23 4 39.3
12:35 1022 30.18 851 25.13 26.5 79.8 25 5.2 41.4
12:40 1022 30.18 851 25.13 26.7 80 25 5.1 41.3
12:45 1022 30.18 851 25.13 26.4 79.5 25 5.3 41.5
12:50 1022 30.18 851 25.13 26 78.7 26 5.2 41.4
12:55 1022 30.18 851 25.13 26.3 79.3 26 5.3 41.5
13:00 1022 30.18 851 25.13 26.2 79.2 23 3.5 38.4
13:05 1022 30.18 851 25.13 25.8 78.4 26 4.9 40.9
13:10 1022 30.18 851 25.13 26 78.8 27 6 42.8
13:15 1022 30.18 851 25.13 26 78.8 25 4.7 40.4
13:20 1022 30.18 851 25.13 26.4 79.5 26 5.6 42
13:25 1022 30.18 851 25.13 26.5 79.7 25 5.4 41.8
13:30 1021 30.15 851 25.13 26.3 79.3 25 5 40.9
13:35 1021 30.15 851 25.13 26.5 79.6 27 6 42.8
13:40 1021 30.15 851 25.13 26.8 80.3 24 4.7 40.5
13:45 1021 30.15 851 25.13 27 80.6 24 5.1 41.2
13:50 1021 30.15 851 25.13 27.3 81.1 23 4.7 40.5
13:55 1021 30.15 851 25.13 27 80.6 24 4.7 40.5
14:00 1021 30.15 850 25.1 27.1 80.8 24 4.9 40.8
14:05 1021 30.15 850 25.1 27.2 81 24 5 41
14:10 1021 30.15 850 25.1 27.4 81.2 22 4.2 39.6
14:15 1021 30.15 850 25.1 27.3 81.2 23 4.7 40.5
14:20 1021 30.15 850 25.1 27.2 81 24 5.2 41.3
14:25 1021 30.15 850 25.1 27 80.6 25 5.4 41.6
14:30 1021 30.15 850 25.1 27.6 81.7 21 3.8 38.8
14:35 1021 30.15 850 25.1 28 82.3 22 4.6 40.3
14:40 1021 30.15 850 25.1 27.8 82 22 4.7 40.4
14:45 1021 30.15 850 25.1 27.8 82.1 21 4 39.2
14:50 1021 30.15 850 25.1 28 82.3 22 4.9 40.8
14:55 1021 30.15 850 25.1 27.3 81.2 25 5.7 42.3
15:00 1020 30.12 850 25.1 27.2 80.9 23 4.8 40.7
15:05 1020 30.12 850 25.1 27.2 81 25 5.9 42.6
15:10 1020 30.12 849 25.07 27.9 82.2 23 5.4 41.6
15:15 1020 30.12 849 25.07 29.1 84.5 22 5.3 41.5
15:20 1020 30.12 849 25.07 29.1 84.3 18 2.4 36.3
15:25 1020 30.12 849 25.07 28.9 83.9 16 0.7 33.2
15:30 1020 30.12 849 25.07 29.4 84.9 15 0.7 33.3
15:35 1020 30.12 849 25.07 29.4 84.9 17 1.7 35.1
15:40 1020 30.12 849 25.07 29.6 85.2 18 2.8 37
15:45 1020 30.12 849 25.07 29.5 85.2 16 1.2 34.1
15:50 1020 30.12 849 25.07 29.4 84.9 15 0.2 32.4
15:55 1020 30.12 849 25.07 29.1 84.3 16 0.9 33.6
16:00 1020 30.12 849 25.07 28.8 83.8 14 -0.7 30.7
16:05 1020 30.12 849 25.07 28.5 83.2 15 -0.8 30.6
16:10 1020 30.12 849 25.07 28.5 83.3 15 -0.3 31.4
16:15 1020 30.12 849 25.07 28.3 83 14 -1 30.3
16:20 1020 30.12 849 25.07 28.3 82.9 15 -0.4 31.2
16:25 1020 30.12 849 25.07 28.2 82.7 15 -0.7 30.7
16:30 1020 30.12 849 25.07 28.2 82.7 15 -0.2 31.6
16:35 1020 30.12 849 25.07 28 82.4 17 0.7 33.3
16:40 1020 30.12 849 25.07 27.9 82.3 16 0.4 32.6
16:45 1019 30.09 849 25.07 27.8 82 17 0.7 33.2
16:50 1019 30.09 849 25.07 27.7 81.8 16 -0.5 31
16:55 1019 30.09 849 25.07 27.7 81.9 15 -1 30.1
17:00 1019 30.09 849 25.07 27.6 81.8 16 -0.4 31.3
17:05 1019 30.09 848 25.04 27.5 81.6 17 0.9 33.6
17:10 1019 30.09 848 25.04 27.5 81.4 18 1.3 34.4
17:15 1019 30.09 848 25.04 27.4 81.3 18 1.5 34.7
17:20 1019 30.09 848 25.04 27.3 81.2 18 1 33.8
17:25 1019 30.09 848 25.04 27.5 81.6 19 1.9 35.4
17:30 1019 30.09 848 25.04 27.7 81.8 19 2.2 35.9
17:35 1019 30.09 848 25.04 27.7 81.9 18 1.6 35
17:40 1019 30.09 848 25.04 27.7 81.8 20 3.1 37.6
17:45 1019 30.09 848 25.04 27.4 81.3 21 3.2 37.8
17:50 1019 30.09 848 25.04 27.3 81.2 20 2.6 36.7
17:55 1019 30.09 848 25.04 27.2 80.9 21 3.2 37.7
18:00 1019 30.09 848 25.04 27 80.7 21 2.9 37.1
18:05 1019 30.09 848 25.04 26.8 80.3 21 2.8 37
18:10 1019 30.09 848 25.04 26.7 80.1 21 2.8 37.1
18:15 1019 30.09 848 25.04 26.5 79.8 22 3.3 37.9
18:20 1019 30.09 848 25.04 26.2 79.1 22 3.1 37.6
18:25 1019 30.09 848 25.04 25.9 78.7 23 3.4 38
18:30 1019 30.09 848 25.04 25.8 78.5 22 2.9 37.3
18:35 1019 30.09 848 25.04 25.8 78.4 23 3.4 38.1
18:40 1019 30.09 848 25.04 25.5 78 23 2.9 37.3
18:45 1019 30.09 848 25.04 25.3 77.6 23 3 37.4
18:50 1019 30.09 848 25.04 25.2 77.4 23 3 37.3
18:55 1019 30.09 848 25.04 25.2 77.3 23 2.8 37
19:00 1019 30.09 848 25.04 25.2 77.3 23 3 37.4
19:05 1019 30.09 848 25.04 25 76.9 23 2.7 36.8
19:10 1019 30.09 848 25.04 24.9 76.8 23 2.5 36.4
19:15 1019 30.09 848 25.04 24.9 76.8 24 2.9 37.2
19:20 1019 30.09 848 25.04 24.5 76.1 28 4.8 40.7
19:25 1019 30.09 848 25.04 23.8 74.9 28 4.7 40.4
19:30 1019 30.09 848 25.04 23.5 74.3 28 4.3 39.7
19:35 1019 30.09 848 25.04 23.3 74 29 4.5 40.1
19:40 1019 30.09 848 25.04 23.2 73.7 28 3.8 38.9
19:45 1019 30.09 848 25.04 23.3 74 29 4.4 39.9
19:50 1019 30.09 848 25.04 23.1 73.5 29 4.2 39.6
19:55 1019 30.09 848 25.04 22.9 73.3 28 3.7 38.7
20:00 1019 30.09 848 25.04 23 73.3 28 3.8 38.9
20:05 1019 30.09 848 25.04 23.1 73.5 29 4.1 39.3
20:10 1019 30.09 848 25.04 23 73.3 30 4.5 40
20:15 1019 30.09 849 25.07 22.7 72.8 29 4.1 39.3
20:20 1019 30.09 849 25.07 22.8 73.1 28 3.8 38.9
20:25 1019 30.09 849 25.07 22.9 73.2 28 3.8 38.8
20:30 1019 30.09 849 25.07 22.7 72.9 29 3.9 38.9
20:35 1019 30.09 849 25.07 22.8 73.1 28 3.7 38.7
20:40 1019 30.09 849 25.07 22.9 73.1 29 4.2 39.6
20:45 1019 30.09 849 25.07 22.9 73.1 30 4.5 40
20:50 1019 30.09 849 25.07 22.7 72.9 30 4.7 40.4
20:55 1019 30.09 849 25.07 22.7 72.8 29 3.7 38.7
21:00 1019 30.09 849 25.07 22.6 72.6 28 3.5 38.2
21:05 1019 30.09 849 25.07 22.6 72.7 28 3.6 38.4
21:10 1019 30.09 849 25.07 22.6 72.7 28 3.2 37.7
21:15 1019 30.09 849 25.07 22.6 72.7 27 2.9 37.3
21:20 1019 30.09 849 25.07 23 73.4 26 2.9 37.2
21:25 1019 30.09 848 25.04 22.8 73 28 3.3 38
21:30 1019 30.09 848 25.04 22.6 72.6 31 4.7 40.5
21:35 1019 30.09 848 25.04 22 71.5 33 5.2 41.4
21:40 1019 30.09 848 25.04 21.7 71 32 4.6 40.4
21:45 1019 30.09 848 25.04 21.7 71.1 29 3 37.4
21:50 1020 30.12 849 25.07 22 71.6 32 4.6 40.2
21:55 1020 30.12 849 25.07 21.7 71 32 4.5 40.1
22:00 1020 30.12 849 25.07 21.5 70.8 32 4.5 40
22:05 1020 30.12 849 25.07 21.4 70.6 35 5.7 42.2
22:10 1020 30.12 849 25.07 21.3 70.4 33 4.8 40.6
22:15 1020 30.12 849 25.07 21.1 70.1 35 5.1 41.2
22:20 1020 30.12 849 25.07 20.8 69.4 37 5.7 42.2
22:25 1020 30.12 849 25.07 20.5 68.9 36 4.9 40.8
22:30 1020 30.12 849 25.07 20.7 69.2 34 4.4 39.9
22:35 1020 30.12 849 25.07 20.9 69.6 32 3.8 38.8
22:40 1020 30.12 849 25.07 20.8 69.5 35 4.9 40.9
22:45 1020 30.12 849 25.07 20.3 68.6 35 4.5 40
22:50 1020 30.12 849 25.07 20.3 68.5 34 4.3 39.7
22:55 1020 30.12 850 25.1 20.3 68.5 35 4.3 39.8
23:00 1020 30.12 850 25.1 20 68 35 4.4 39.9
23:05 1020 30.12 849 25.07 20 67.9 35 4.3 39.8
23:10 1020 30.12 849 25.07 19.9 67.8 35 4.2 39.6
23:15 1020 30.12 849 25.07 19.8 67.6 37 4.9 40.8
23:20 1020 30.12 849 25.07 19.4 66.9 38 4.9 40.8
23:25 1020 30.12 850 25.1 19.4 67 36 4 39.2
23:30 1020 30.12 850 25.1 19.5 67.1 34 3.3 38
23:35 1020 30.12 850 25.1 19.7 67.5 34 3.4 38.1
23:40 1020 30.12 850 25.1 19.6 67.3 33 3.3 37.9
23:45 1020 30.12 850 25.1 19.6 67.3 34 3.6 38.4
23:50 1020 30.12 849 25.07 19.5 67.2 34 3.4 38.2
23:55 1020 30.12 849 25.07 19.4 66.9 35 3.8 38.8
24:00 1020 30.12 850 25.1 19.2 66.5 35 3.5 38.4